Time;durP1;ratioP1;P1;durP2;ratioP2;P2;SDS_P1;SDS_P2;PMS_P1;PMS_P2;Temp;Humidity;BMP_temperature;BMP_pressure;BME280_temperature;BME280_humidity;BME280_pressure;Samples;Min_cycle;Max_cycle;Signal;HPM_P1;HPM_P2
2023/05/01 00:02:25;;;;;;;3.40;1.60;;;;;;;14.32;43.68;100356.36;108128;1288;21995;-60
2023/05/01 00:04:51;;;;;;;2.50;1.50;;;;;;;14.30;43.78;100359.05;108117;1288;22077;-59
2023/05/01 00:07:17;;;;;;;6.70;2.70;;;;;;;14.31;43.72;100364.84;108119;1288;22001;-58
2023/05/01 00:09:43;;;;;;;5.80;2.20;;;;;;;14.30;43.55;100362.94;108093;1288;21989;-59
2023/05/01 00:12:09;;;;;;;5.30;2.40;;;;;;;14.14;43.75;100365.32;108112;1288;21983;-58
2023/05/01 00:14:36;;;;;;;3.10;1.70;;;;;;;14.03;43.84;100367.01;108186;1288;21983;-58
2023/05/01 00:17:02;;;;;;;4.50;2.00;;;;;;;13.99;43.91;100369.23;108109;1288;21984;-58
2023/05/01 00:19:28;;;;;;;3.90;1.90;;;;;;;13.97;43.87;100369.09;108167;1288;21981;-60
2023/05/01 00:21:53;;;;;;;4.00;1.90;;;;;;;14.02;43.92;100371.98;107888;1288;23732;-58
2023/05/01 00:24:19;;;;;;;5.40;1.80;;;;;;;14.04;43.64;100369.45;108104;1288;22043;-59
2023/05/01 00:26:45;;;;;;;4.60;1.80;;;;;;;14.00;43.61;100366.91;108062;1288;22024;-58
2023/05/01 00:29:10;;;;;;;5.30;1.80;;;;;;;13.97;43.61;100366.27;106615;1288;1003184;-58
2023/05/01 00:31:36;;;;;;;6.80;1.80;;;;;;;13.93;43.58;100371.52;108138;1288;21987;-60
2023/05/01 00:34:03;;;;;;;3.80;1.80;;;;;;;13.87;43.46;100372.89;108181;1288;21988;-59
2023/05/01 00:36:30;;;;;;;4.80;1.90;;;;;;;13.85;43.47;100373.14;108168;1288;21987;-59
2023/05/01 00:38:56;;;;;;;3.40;1.90;;;;;;;13.80;43.37;100373.62;108101;1288;22451;-60
2023/05/01 00:41:22;;;;;;;3.30;1.70;;;;;;;13.77;43.41;100377.02;107365;1288;1002565;-58
2023/05/01 00:43:47;;;;;;;4.60;2.00;;;;;;;13.75;43.34;100376.19;107342;1288;1003176;-59
2023/05/01 00:46:13;;;;;;;4.20;2.00;;;;;;;13.74;43.46;100373.39;108122;1287;22455;-59
2023/05/01 00:48:38;;;;;;;2.90;1.60;;;;;;;13.74;43.45;100372.34;108147;1288;22157;-59
2023/05/01 00:51:04;;;;;;;3.00;1.60;;;;;;;13.74;43.42;100373.40;107838;1288;21986;-59
2023/05/01 00:53:32;;;;;;;3.80;1.70;;;;;;;13.73;43.49;100376.77;108121;1288;21986;-58
2023/05/01 00:55:58;;;;;;;3.80;1.90;;;;;;;13.73;43.56;100378.72;108174;1288;21991;-59
2023/05/01 00:58:23;;;;;;;3.80;1.60;;;;;;;13.75;43.70;100380.77;108138;1288;22460;-59
2023/05/01 01:00:49;;;;;;;6.20;1.80;;;;;;;13.78;43.71;100380.88;108162;1288;22450;-59
2023/05/01 01:03:15;;;;;;;3.10;1.50;;;;;;;13.79;43.91;100380.50;108141;1288;24341;-60
2023/05/01 01:05:44;;;;;;;5.00;1.80;;;;;;;13.81;43.90;100380.10;108146;1288;21987;-59
2023/05/01 01:08:39;;;;;;;3.40;1.70;;;;;;;13.84;43.85;100377.21;108131;1288;21983;-58
2023/05/01 01:11:14;;;;;;;3.50;1.40;;;;;;;13.84;43.84;100378.45;108100;1288;21989;-58
2023/05/01 01:13:54;;;;;;;2.60;1.40;;;;;;;13.83;43.74;100376.87;108142;1288;22180;-59
2023/05/01 01:16:34;;;;;;;4.90;1.50;;;;;;;13.82;43.74;100374.08;107992;1289;21985;-59
2023/05/01 01:19:37;;;;;;;5.10;1.50;;;;;;;13.80;43.80;100372.90;107992;1289;22024;-59
2023/05/01 01:22:07;;;;;;;6.30;2.20;;;;;;;13.78;43.65;100368.72;107965;1289;21987;-60
2023/05/01 01:24:35;;;;;;;4.50;2.40;;;;;;;13.76;43.62;100366.30;107943;1288;21987;-59
2023/05/01 01:27:10;;;;;;;3.50;1.60;;;;;;;13.73;43.62;100365.15;108123;1288;21997;-60
2023/05/01 01:29:57;;;;;;;4.30;1.50;;;;;;;13.67;43.56;100365.98;107940;1288;21987;-60
2023/05/01 01:32:56;;;;;;;3.80;1.50;;;;;;;13.64;43.37;100366.09;108179;1288;21998;-60
2023/05/01 01:35:25;;;;;;;6.10;1.90;;;;;;;13.59;43.29;100365.32;108085;1288;21991;-58
2023/05/01 01:38:05;;;;;;;3.80;2.00;;;;;;;13.52;43.29;100362.48;108130;1288;21989;-58
2023/05/01 01:40:37;;;;;;;3.80;1.70;;;;;;;13.43;43.18;100361.64;108151;1288;22044;-58
2023/05/01 01:43:06;;;;;;;3.50;1.90;;;;;;;13.35;43.08;100361.82;108148;1288;22010;-57
2023/05/01 01:45:41;;;;;;;5.30;1.80;;;;;;;13.27;43.20;100364.29;108055;1288;21985;-60
2023/05/01 01:48:08;;;;;;;3.90;1.50;;;;;;;13.19;43.29;100363.95;108118;1288;21981;-60
2023/05/01 01:50:35;;;;;;;3.80;1.50;;;;;;;13.13;43.30;100366.20;107855;1288;21987;-60
2023/05/01 01:53:01;;;;;;;3.70;1.40;;;;;;;13.06;43.28;100367.25;108023;1288;21988;-59
2023/05/01 01:55:28;;;;;;;4.10;1.40;;;;;;;13.01;43.33;100371.60;108001;1289;22935;-59
2023/05/01 01:57:55;;;;;;;6.30;1.90;;;;;;;12.96;43.46;100370.12;108043;1289;21997;-58
2023/05/01 02:00:20;;;;;;;3.10;1.60;;;;;;;12.91;43.33;100370.92;108050;1289;21994;-59
2023/05/01 02:02:46;;;;;;;5.60;2.30;;;;;;;12.86;43.36;100373.48;107784;1288;22077;-59
2023/05/01 02:05:15;;;;;;;3.80;1.40;;;;;;;12.80;43.38;100373.45;107768;1288;21990;-59
2023/05/01 02:07:42;;;;;;;2.10;1.50;;;;;;;12.77;43.47;100373.88;108105;1288;21987;-59
2023/05/01 02:10:08;;;;;;;4.20;1.30;;;;;;;12.71;43.66;100374.71;107985;1288;21988;-60
2023/05/01 02:12:34;;;;;;;3.80;1.10;;;;;;;12.66;43.73;100373.73;107795;1288;22007;-60
2023/05/01 02:15:00;;;;;;;3.10;1.40;;;;;;;12.68;43.74;100375.11;108251;1288;21986;-58
2023/05/01 02:17:26;;;;;;;3.40;1.60;;;;;;;12.67;43.73;100376.52;108000;1288;21998;-60
2023/05/01 02:19:53;;;;;;;3.60;1.60;;;;;;;12.64;43.65;100376.95;108006;1288;21994;-59
2023/05/01 02:22:24;;;;;;;5.10;1.80;;;;;;;12.61;43.56;100377.88;107948;1288;21994;-59
2023/05/01 02:24:51;;;;;;;3.30;1.20;;;;;;;12.59;43.58;100379.34;108124;1288;21984;-59
2023/05/01 02:27:22;;;;;;;3.10;1.60;;;;;;;12.57;43.45;100381.34;107877;1288;21996;-58
2023/05/01 02:29:47;;;;;;;4.30;1.50;;;;;;;12.54;43.50;100381.40;107891;1288;22008;-61
2023/05/01 02:32:13;;;;;;;2.70;1.30;;;;;;;12.49;43.32;100383.08;108191;1288;21981;-60
2023/05/01 02:34:39;;;;;;;2.60;1.30;;;;;;;12.43;43.25;100386.17;107967;1287;21989;-60
2023/05/01 02:37:06;;;;;;;2.90;1.20;;;;;;;12.37;43.44;100385.60;108136;1288;22029;-60
2023/05/01 02:39:32;;;;;;;2.50;1.20;;;;;;;12.34;43.39;100388.12;108180;1288;22456;-60
2023/05/01 02:41:58;;;;;;;4.70;1.50;;;;;;;12.33;43.57;100388.13;108043;1288;23608;-59
2023/05/01 02:44:24;;;;;;;3.50;1.40;;;;;;;12.32;43.52;100391.15;107961;1288;22001;-60
2023/05/01 02:46:50;;;;;;;5.60;1.20;;;;;;;12.28;43.53;100393.16;108115;1288;21986;-59
2023/05/01 02:49:17;;;;;;;2.70;1.60;;;;;;;12.25;43.23;100394.80;107763;1288;21992;-59
2023/05/01 02:51:44;;;;;;;5.90;1.50;;;;;;;12.23;43.45;100392.89;108022;1288;22003;-60
2023/05/01 02:54:10;;;;;;;5.20;1.60;;;;;;;12.22;43.31;100399.96;107771;1288;23043;-59
2023/05/01 02:56:36;;;;;;;4.40;1.70;;;;;;;12.21;43.40;100400.67;107904;1288;21988;-59
2023/05/01 02:59:02;;;;;;;2.40;1.00;;;;;;;12.22;43.46;100401.54;108104;1288;21984;-60
2023/05/01 03:01:28;;;;;;;3.80;1.30;;;;;;;12.25;43.46;100401.30;108061;1288;21984;-58
2023/05/01 03:03:54;;;;;;;3.50;1.40;;;;;;;12.28;43.36;100400.20;108132;1288;21991;-59
2023/05/01 03:06:20;;;;;;;4.10;1.60;;;;;;;12.29;43.51;100404.39;107316;1288;1003140;-62
2023/05/01 03:08:46;;;;;;;4.80;1.60;;;;;;;12.31;43.34;100404.36;108057;1288;22209;-60
2023/05/01 03:11:12;;;;;;;4.70;1.60;;;;;;;12.30;43.20;100405.25;108141;1288;21983;-60
2023/05/01 03:13:38;;;;;;;2.40;1.20;;;;;;;12.26;43.28;100405.67;108011;1288;21997;-59
2023/05/01 03:16:05;;;;;;;3.20;1.50;;;;;;;12.26;43.46;100407.10;108029;1288;21995;-61
2023/05/01 03:18:31;;;;;;;5.30;1.60;;;;;;;12.27;43.39;100407.42;108038;1288;21992;-59
2023/05/01 03:20:57;;;;;;;2.70;1.20;;;;;;;12.30;43.50;100408.95;108060;1288;22000;-59
2023/05/01 03:23:22;;;;;;;4.00;2.00;;;;;;;12.34;43.48;100407.98;108094;1288;22005;-59
2023/05/01 03:25:49;;;;;;;3.70;1.50;;;;;;;12.39;43.32;100409.48;107911;1288;21995;-60
2023/05/01 03:28:15;;;;;;;5.90;1.80;;;;;;;12.45;43.29;100408.30;108081;1288;21992;-59
2023/05/01 03:30:41;;;;;;;34.40;21.50;;;;;;;12.52;43.26;100411.52;108034;1288;21988;-58
2023/05/01 03:33:06;;;;;;;20.80;13.40;;;;;;;12.51;43.18;100410.30;108028;1287;22003;-58
2023/05/01 03:35:32;;;;;;;12.00;8.10;;;;;;;12.56;43.20;100412.14;108030;1288;21978;-60
2023/05/01 03:37:58;;;;;;;10.90;5.80;;;;;;;12.59;43.28;100410.84;107948;1288;21990;-58
2023/05/01 03:40:24;;;;;;;11.40;6.40;;;;;;;12.63;43.28;100412.36;108059;1288;22024;-59
2023/05/01 03:42:49;;;;;;;7.00;4.00;;;;;;;12.65;43.48;100409.31;108035;1288;21998;-59
2023/05/01 03:45:15;;;;;;;5.80;4.10;;;;;;;12.66;43.63;100410.18;108057;1288;21985;-60
2023/05/01 03:47:41;;;;;;;6.80;3.90;;;;;;;12.68;43.62;100410.33;107828;1286;21989;-59
2023/05/01 03:50:08;;;;;;;9.30;3.70;;;;;;;12.68;43.51;100411.20;108087;1288;21993;-59
2023/05/01 03:52:34;;;;;;;6.60;3.50;;;;;;;12.70;43.71;100414.50;108038;1288;22080;-59
2023/05/01 03:54:59;;;;;;;10.10;4.60;;;;;;;12.72;43.71;100413.56;108029;1288;22077;-59
2023/05/01 03:57:26;;;;;;;11.10;4.70;;;;;;;12.75;43.93;100415.98;108047;1288;21987;-60
2023/05/01 03:59:53;;;;;;;12.90;5.60;;;;;;;12.75;43.93;100417.92;108077;1288;21988;-59
2023/05/01 04:02:19;;;;;;;9.50;5.30;;;;;;;12.78;44.11;100416.98;108040;1288;21989;-59
2023/05/01 04:04:44;;;;;;;10.80;4.00;;;;;;;12.84;44.10;100418.98;108133;1286;21985;-60
2023/05/01 04:07:11;;;;;;;8.80;2.90;;;;;;;12.89;44.20;100423.63;108075;1288;21987;-60
2023/05/01 04:09:36;;;;;;;7.40;2.70;;;;;;;12.97;44.22;100425.40;108080;1288;21991;-60
2023/05/01 04:12:02;;;;;;;11.20;4.10;;;;;;;13.07;44.17;100423.05;107937;1288;21988;-60
2023/05/01 04:14:28;;;;;;;7.10;4.30;;;;;;;13.18;44.11;100424.23;108025;1288;22017;-60
2023/05/01 04:16:54;;;;;;;13.80;3.80;;;;;;;13.30;44.20;100426.42;108024;1288;22170;-58
2023/05/01 04:19:20;;;;;;;5.70;2.30;;;;;;;13.43;44.40;100424.91;108034;1288;22174;-60
2023/05/01 04:21:46;;;;;;;4.70;1.90;;;;;;;13.57;44.40;100431.30;108060;1288;21994;-58
2023/05/01 04:24:12;;;;;;;5.00;1.80;;;;;;;13.76;44.11;100435.94;108012;1288;21982;-58
2023/05/01 04:26:38;;;;;;;3.80;1.60;;;;;;;13.95;44.17;100436.37;108023;1288;21988;-59
2023/05/01 04:29:03;;;;;;;5.80;2.00;;;;;;;14.13;44.37;100434.84;108125;1288;24363;-60
2023/05/01 04:31:29;;;;;;;2.90;1.40;;;;;;;14.29;44.26;100438.67;108034;1288;21956;-59
2023/05/01 04:33:55;;;;;;;2.70;1.60;;;;;;;14.44;44.30;100439.86;108037;1288;22160;-60
2023/05/01 04:36:21;;;;;;;5.00;1.60;;;;;;;14.58;44.20;100443.35;108054;1286;21986;-60
2023/05/01 04:38:47;;;;;;;3.90;1.90;;;;;;;14.70;44.21;100442.15;108023;1285;22452;-60
2023/05/01 04:41:13;;;;;;;6.30;1.50;;;;;;;14.83;44.16;100447.27;107964;1288;21985;-60
2023/05/01 04:43:38;;;;;;;3.60;1.30;;;;;;;14.95;44.07;100444.64;108124;1288;21985;-59
2023/05/01 04:46:04;;;;;;;3.10;1.60;;;;;;;15.07;43.93;100446.94;108142;1288;21989;-59
2023/05/01 04:48:30;;;;;;;2.50;1.30;;;;;;;15.18;43.85;100445.20;108126;1288;21951;-61
2023/05/01 04:50:56;;;;;;;3.10;1.30;;;;;;;15.28;43.69;100442.77;108151;1288;21991;-59
2023/05/01 04:53:22;;;;;;;7.00;1.60;;;;;;;15.38;43.43;100445.10;108159;1288;21988;-59
2023/05/01 04:55:47;;;;;;;4.00;1.80;;;;;;;15.49;43.23;100446.19;108106;1288;21978;-60
2023/05/01 04:58:13;;;;;;;6.00;1.80;;;;;;;15.63;43.33;100448.23;108090;1288;21983;-59
2023/05/01 05:00:39;;;;;;;5.30;2.70;;;;;;;15.80;43.40;100452.98;108107;1288;21979;-60
2023/05/01 05:03:05;;;;;;;3.70;1.60;;;;;;;15.91;42.78;100457.77;107945;1288;21986;-59
2023/05/01 05:05:31;;;;;;;4.70;2.50;;;;;;;16.11;42.93;100462.77;108167;1288;21991;-60
2023/05/01 05:07:57;;;;;;;6.10;2.20;;;;;;;16.37;43.41;100462.61;108137;1288;22462;-60
2023/05/01 05:10:23;;;;;;;2.90;1.50;;;;;;;16.56;43.32;100463.52;108114;1288;21999;-60
2023/05/01 05:12:49;;;;;;;5.30;2.10;;;;;;;16.69;42.96;100466.41;108076;1288;21989;-59
2023/05/01 05:15:15;;;;;;;6.10;1.80;;;;;;;16.88;43.10;100471.05;108089;1288;22026;-59
2023/05/01 05:17:41;;;;;;;3.90;2.30;;;;;;;17.02;42.81;100476.05;108035;1288;21983;-59
2023/05/01 05:20:07;;;;;;;6.60;1.50;;;;;;;17.21;43.12;100471.95;108131;1288;21980;-60
2023/05/01 05:22:37;;;;;;;3.60;1.70;;;;;;;17.41;42.84;100473.88;108153;1287;22000;-60
2023/05/01 05:25:05;;;;;;;5.00;2.50;;;;;;;17.54;42.45;100476.54;108131;1288;21994;-60
2023/05/01 05:27:35;;;;;;;4.10;2.10;;;;;;;17.63;42.09;100478.31;108119;1288;21995;-60
2023/05/01 05:30:01;;;;;;;3.70;2.10;;;;;;;17.71;41.61;100482.23;108104;1288;23723;-60
2023/05/01 05:32:28;;;;;;;7.70;3.20;;;;;;;17.83;41.91;100486.92;108150;1288;21995;-60
2023/05/01 05:34:54;;;;;;;6.00;2.50;;;;;;;17.92;41.89;100489.24;108100;1288;23621;-61
2023/05/01 05:37:19;;;;;;;3.40;2.20;;;;;;;18.05;41.83;100489.08;107987;1288;21996;-59
2023/05/01 05:39:45;;;;;;;6.90;2.70;;;;;;;18.18;41.83;100494.40;108129;1288;21987;-59
2023/05/01 05:42:11;;;;;;;6.80;2.30;;;;;;;18.35;42.08;100495.09;108063;1288;21979;-59
2023/05/01 05:44:38;;;;;;;3.10;1.70;;;;;;;18.44;41.51;100498.26;108097;1288;22023;-59
2023/05/01 05:47:03;;;;;;;4.60;2.30;;;;;;;18.65;41.69;100500.38;108085;1288;21989;-60
2023/05/01 05:49:30;;;;;;;4.00;2.00;;;;;;;18.80;41.34;100504.00;108134;1288;22023;-61
2023/05/01 05:51:55;;;;;;;4.50;1.70;;;;;;;18.92;41.22;100509.86;108095;1288;21982;-61
2023/05/01 05:54:21;;;;;;;4.60;2.00;;;;;;;19.06;40.89;100510.14;108154;1288;21994;-60
2023/05/01 05:56:47;;;;;;;4.10;1.70;;;;;;;19.25;41.13;100513.02;108092;1288;21986;-61
2023/05/01 05:59:12;;;;;;;4.60;2.40;;;;;;;19.52;41.41;100503.59;108109;1288;21989;-60
2023/05/01 06:01:39;;;;;;;4.60;2.30;;;;;;;19.85;41.95;100497.42;107328;1288;1002922;-61
2023/05/01 06:04:05;;;;;;;5.60;2.20;;;;;;;20.20;40.92;100499.94;108066;1288;22080;-60
2023/05/01 06:06:31;;;;;;;4.50;2.00;;;;;;;20.49;39.72;100503.09;108163;1288;21983;-59
2023/05/01 06:08:57;;;;;;;5.50;2.00;;;;;;;20.77;39.54;100503.64;108144;1288;21985;-60
2023/05/01 06:11:23;;;;;;;5.80;2.10;;;;;;;21.05;39.67;100505.34;108116;1288;21986;-60
2023/05/01 06:13:48;;;;;;;3.90;1.80;;;;;;;21.38;39.98;100507.48;108096;1288;22009;-60
2023/05/01 06:16:14;;;;;;;5.90;2.00;;;;;;;21.66;39.63;100503.48;108093;1288;22054;-60
2023/05/01 06:18:40;;;;;;;6.60;2.00;;;;;;;21.97;39.66;100507.08;107965;1288;165578;-60
2023/05/01 06:21:06;;;;;;;3.20;1.60;;;;;;;22.20;38.81;100505.90;108089;1288;21950;-59
2023/05/01 06:23:32;;;;;;;7.40;1.60;;;;;;;22.33;38.29;100505.49;108138;1288;22456;-60
2023/05/01 06:25:59;;;;;;;6.50;1.80;;;;;;;22.54;38.62;100511.45;108018;1288;21989;-61
2023/05/01 06:28:24;;;;;;;6.10;1.70;;;;;;;22.71;38.35;100512.00;108118;1288;22040;-59
2023/05/01 06:30:50;;;;;;;3.70;1.70;;;;;;;22.90;38.04;100514.84;108098;1288;22006;-60
2023/05/01 06:33:16;;;;;;;5.40;1.60;;;;;;;23.10;37.81;100514.62;108069;1288;21988;-60
2023/05/01 06:35:41;;;;;;;4.10;1.60;;;;;;;23.32;38.48;100515.42;108075;1288;22080;-60
2023/05/01 06:38:07;;;;;;;4.30;1.80;;;;;;;23.56;38.30;100517.50;108071;1288;22156;-60
2023/05/01 06:40:34;;;;;;;8.70;4.80;;;;;;;23.79;38.55;100525.86;108193;1288;22000;-60
2023/05/01 06:43:02;;;;;;;4.50;3.20;;;;;;;24.03;38.68;100529.55;108140;1288;21986;-59
2023/05/01 06:45:28;;;;;;;6.20;3.40;;;;;;;24.21;38.98;100531.35;107868;1288;21989;-61
2023/05/01 06:47:54;;;;;;;3.20;2.00;;;;;;;24.36;38.02;100531.64;108089;1288;22657;-60
2023/05/01 06:50:19;;;;;;;5.20;1.80;;;;;;;24.46;37.58;100535.42;108131;1288;21986;-60
2023/05/01 06:52:45;;;;;;;6.80;2.20;;;;;;;24.52;37.14;100532.69;108189;1288;22032;-60
2023/05/01 06:55:11;;;;;;;6.40;2.70;;;;;;;24.63;36.63;100533.58;108122;1288;21990;-59
2023/05/01 06:57:38;;;;;;;18.80;12.00;;;;;;;24.77;35.60;100535.34;108133;1288;21987;-61
2023/05/01 07:00:06;;;;;;;10.40;5.20;;;;;;;24.86;35.81;100538.66;108150;1288;21997;-60
2023/05/01 07:02:33;;;;;;;4.60;2.60;;;;;;;24.95;35.73;100538.60;108141;1288;22383;-61
2023/05/01 07:04:59;;;;;;;4.80;1.90;;;;;;;25.00;34.99;100544.34;108012;1288;22072;-60
2023/05/01 07:07:25;;;;;;;3.40;1.70;;;;;;;25.03;34.65;100543.77;107993;1288;22069;-61
2023/05/01 07:09:50;;;;;;;5.40;2.20;;;;;;;24.95;33.58;100547.74;108055;1288;21989;-61
2023/05/01 07:12:16;;;;;;;5.30;1.80;;;;;;;24.85;32.91;100552.34;108155;1288;21991;-60
2023/05/01 07:14:42;;;;;;;7.70;2.00;;;;;;;24.87;33.55;100552.73;108131;1288;21989;-61
2023/05/01 07:17:08;;;;;;;6.60;1.90;;;;;;;24.86;33.09;100552.64;108163;1288;22010;-60
2023/05/01 07:19:34;;;;;;;4.40;2.50;;;;;;;24.92;33.87;100551.84;108089;1288;21987;-61
2023/05/01 07:21:59;;;;;;;3.70;1.60;;;;;;;24.98;33.05;100550.59;108138;1288;21992;-60
2023/05/01 07:24:25;;;;;;;5.10;1.90;;;;;;;25.01;33.34;100554.85;108117;1288;21995;-60
2023/05/01 07:26:51;;;;;;;3.80;2.10;;;;;;;25.05;33.50;100556.73;108111;1288;21982;-61
2023/05/01 07:29:17;;;;;;;5.20;1.90;;;;;;;24.97;33.06;100556.38;108112;1288;21989;-61
2023/05/01 07:31:43;;;;;;;5.10;2.20;;;;;;;24.79;33.05;100560.45;108119;1288;21980;-61
2023/05/01 07:34:09;;;;;;;4.60;1.80;;;;;;;24.74;33.26;100559.04;108190;1288;21971;-60
2023/05/01 07:36:34;;;;;;;5.20;2.10;;;;;;;24.77;33.99;100564.55;108129;1288;21999;-61
2023/05/01 07:39:00;;;;;;;6.40;2.10;;;;;;;25.00;34.04;100565.66;108102;1288;21997;-62
2023/05/01 07:41:26;;;;;;;4.40;2.20;;;;;;;25.20;33.79;100565.88;108092;1288;21986;-61
2023/05/01 07:43:51;;;;;;;4.60;1.90;;;;;;;25.39;34.15;100567.97;108081;1288;21988;-61
2023/05/01 07:46:17;;;;;;;4.60;2.10;;;;;;;25.55;32.43;100573.35;108102;1288;22027;-62
2023/05/01 07:48:43;;;;;;;6.00;1.90;;;;;;;25.62;32.07;100577.48;108148;1288;22030;-60
2023/05/01 07:51:08;;;;;;;4.70;2.00;;;;;;;25.64;32.87;100582.74;108103;1288;22862;-62
2023/05/01 07:53:34;;;;;;;3.00;1.50;;;;;;;25.62;32.51;100584.65;108168;1288;21989;-62
2023/05/01 07:56:05;;;;;;;4.30;2.00;;;;;;;25.59;32.91;100587.77;108101;1288;22454;-60
2023/05/01 07:58:31;;;;;;;4.70;2.10;;;;;;;25.76;32.21;100589.79;108185;1288;22457;-61
2023/05/01 08:00:57;;;;;;;4.30;2.10;;;;;;;25.92;32.89;100593.42;108128;1288;22165;-61
2023/05/01 08:03:23;;;;;;;4.50;2.30;;;;;;;26.10;32.40;100590.69;108068;1288;21998;-59
2023/05/01 08:05:48;;;;;;;3.70;1.90;;;;;;;26.22;31.99;100593.40;108052;1288;21977;-60
2023/05/01 08:08:19;;;;;;;4.70;2.50;;;;;;;26.16;31.41;100596.23;108037;1288;23594;-62
2023/05/01 08:10:45;;;;;;;;;;;;;;;26.17;30.79;100599.39;108070;1288;21974;-60
2023/05/01 08:13:10;;;;;;;3.10;2.00;;;;;;;26.06;30.81;100607.02;108075;1288;22183;-60
2023/05/01 08:15:37;;;;;;;3.90;1.90;;;;;;;25.93;30.91;100606.84;108043;1288;21992;-60
2023/05/01 08:18:04;;;;;;;6.90;2.60;;;;;;;26.00;31.64;100602.60;108042;1288;22040;-62
2023/05/01 08:20:30;;;;;;;5.10;1.90;;;;;;;26.15;32.37;100606.02;108103;1288;21984;-61
2023/05/01 08:22:56;;;;;;;4.20;2.40;;;;;;;26.32;32.77;100605.51;108074;1288;21994;-62
2023/05/01 08:25:21;;;;;;;6.30;2.00;;;;;;;26.52;32.20;100610.09;108031;1288;23612;-61
2023/05/01 08:27:48;;;;;;;3.80;2.30;;;;;;;26.53;32.06;100613.06;108063;1288;22009;-62
2023/05/01 08:30:13;;;;;;;6.80;2.70;;;;;;;26.65;32.16;100615.91;108060;1288;21993;-60
2023/05/01 08:32:39;;;;;;;6.80;2.30;;;;;;;26.94;32.37;100616.79;108071;1288;21992;-60
2023/05/01 08:35:05;;;;;;;6.10;2.50;;;;;;;26.93;31.13;100618.89;108041;1288;21991;-62
2023/05/01 08:37:31;;;;;;;6.40;2.40;;;;;;;26.75;31.55;100622.77;108140;1287;21987;-60
2023/05/01 08:39:57;;;;;;;6.30;3.10;;;;;;;26.69;32.14;100624.66;108041;1288;22031;-62
2023/05/01 08:42:23;;;;;;;10.20;2.80;;;;;;;26.64;32.34;100625.88;108035;1288;21987;-60
2023/05/01 08:44:49;;;;;;;5.30;2.70;;;;;;;26.31;32.35;100622.65;107758;1288;21987;-60
2023/05/01 08:47:16;;;;;;;5.20;2.90;;;;;;;26.12;32.29;100624.39;108043;1288;21993;-62
2023/05/01 08:49:43;;;;;;;6.90;2.80;;;;;;;25.94;31.67;100623.72;108040;1288;22000;-62
2023/05/01 08:52:13;;;;;;;4.70;2.60;;;;;;;25.96;32.54;100624.64;108162;1288;21997;-62
2023/05/01 08:54:41;;;;;;;7.20;2.60;;;;;;;26.19;32.43;100618.62;108147;1288;22125;-60
2023/05/01 08:57:08;;;;;;;8.80;3.30;;;;;;;26.52;33.08;100621.41;108153;1288;21985;-61
2023/05/01 08:59:34;;;;;;;6.90;2.90;;;;;;;26.96;33.41;100624.91;108139;1288;21989;-61
2023/05/01 09:02:03;;;;;;;6.30;3.10;;;;;;;27.36;31.86;100627.23;108111;1288;21988;-61
2023/05/01 09:04:31;;;;;;;5.50;2.60;;;;;;;27.61;32.18;100628.55;108098;1288;22103;-60
2023/05/01 09:06:59;;;;;;;5.00;3.00;;;;;;;27.78;31.49;100625.52;108083;1288;21973;-62
2023/05/01 09:09:26;;;;;;;10.10;2.70;;;;;;;27.89;31.74;100625.01;108007;1288;21992;-60
2023/05/01 09:11:56;;;;;;;4.90;2.90;;;;;;;27.93;30.72;100623.99;108194;1288;21997;-60
2023/05/01 09:14:22;;;;;;;8.50;2.80;;;;;;;27.73;30.37;100629.16;108094;1288;22026;-61
2023/05/01 09:16:51;;;;;;;6.40;2.70;;;;;;;27.83;32.07;100628.18;108068;1288;21990;-62
2023/05/01 09:19:18;;;;;;;9.20;3.20;;;;;;;28.01;31.14;100627.13;108088;1288;21989;-62
2023/05/01 09:21:43;;;;;;;7.20;2.50;;;;;;;27.94;29.97;100623.02;108117;1287;21986;-61
2023/05/01 09:24:09;;;;;;;6.40;2.70;;;;;;;27.96;30.94;100626.25;108105;1288;21986;-62
2023/05/01 09:26:40;;;;;;;5.70;2.60;;;;;;;27.93;30.19;100625.24;108111;1288;21992;-62
2023/05/01 09:29:08;;;;;;;5.10;2.30;;;;;;;27.95;30.94;100623.66;108008;1288;21985;-62
2023/05/01 09:31:33;;;;;;;4.40;2.20;;;;;;;28.22;31.63;100624.48;108112;1288;21999;-61
2023/05/01 09:34:03;;;;;;;5.90;2.60;;;;;;;28.62;31.41;100618.84;108143;1288;21981;-61
2023/05/01 09:36:31;;;;;;;6.80;2.20;;;;;;;28.84;29.88;100619.55;108105;1288;22156;-60
2023/05/01 09:38:59;;;;;;;5.00;2.10;;;;;;;28.81;28.59;100619.03;108108;1288;21984;-60
2023/05/01 09:41:25;;;;;;;4.80;2.30;;;;;;;28.73;29.10;100620.24;108130;1288;21988;-62
2023/05/01 09:43:55;;;;;;;4.90;2.40;;;;;;;28.76;29.41;100617.52;107787;1288;21989;-60
2023/05/01 09:46:24;;;;;;;5.60;2.50;;;;;;;28.73;29.42;100616.86;108042;1287;21989;-60
2023/05/01 09:48:56;;;;;;;8.90;3.30;;;;;;;28.96;30.98;100614.55;108170;1288;24969;-60
2023/05/01 09:51:29;;;;;;;6.70;2.90;;;;;;;29.36;30.54;100620.10;108078;1287;22012;-60
2023/05/01 09:53:59;;;;;;;7.60;2.80;;;;;;;29.53;29.44;100622.79;108046;1288;22108;-60
2023/05/01 09:56:26;;;;;;;5.30;2.70;;;;;;;29.65;29.83;100621.95;108106;1288;22469;-63
2023/05/01 09:58:52;;;;;;;3.90;2.20;;;;;;;29.79;29.21;100622.88;108073;1288;21986;-60
2023/05/01 10:01:18;;;;;;;7.50;3.50;;;;;;;29.68;28.43;100623.69;108076;1288;21999;-61
2023/05/01 10:03:44;;;;;;;3.80;2.50;;;;;;;29.57;29.07;100627.34;108090;1288;21991;-62
2023/05/01 10:06:10;;;;;;;4.00;2.30;;;;;;;29.41;28.50;100628.95;107915;1288;21982;-63
2023/05/01 10:08:46;;;;;;;6.50;2.80;;;;;;;29.38;28.40;100633.86;108130;1288;22002;-60
2023/05/01 10:11:11;;;;;;;6.10;2.30;;;;;;;29.44;29.70;100632.66;108153;1288;21985;-62
2023/05/01 10:13:37;;;;;;;6.50;2.80;;;;;;;29.65;29.67;100633.29;108092;1288;21995;-62
2023/05/01 10:16:06;;;;;;;5.00;2.60;;;;;;;29.82;29.11;100632.88;108076;1288;21989;-62
2023/05/01 10:18:35;;;;;;;8.60;2.50;;;;;;;29.91;28.69;100634.22;108095;1288;21987;-60
2023/05/01 10:21:01;;;;;;;5.50;2.60;;;;;;;30.06;28.26;100634.38;108040;1288;22029;-61
2023/05/01 10:23:28;;;;;;;6.60;2.70;;;;;;;30.15;28.42;100636.48;108085;1288;21989;-60
2023/05/01 10:25:53;;;;;;;5.40;2.80;;;;;;;30.20;28.26;100634.58;107868;1286;22001;-61
2023/05/01 10:28:20;;;;;;;6.70;2.80;;;;;;;30.17;28.23;100630.90;107777;1288;21986;-62
2023/05/01 10:30:46;;;;;;;6.70;2.90;;;;;;;30.12;28.45;100632.03;108053;1288;22008;-63
2023/05/01 10:33:13;;;;;;;10.90;3.10;;;;;;;30.08;28.96;100634.02;107830;1288;24373;-60
2023/05/01 10:35:39;;;;;;;4.70;2.80;;;;;;;30.03;28.36;100630.89;108129;1288;21991;-61
2023/05/01 10:38:14;;;;;;;6.10;2.50;;;;;;;29.95;27.94;100634.09;108047;1288;22000;-61
2023/05/01 10:41:05;;;;;;;4.50;2.60;;;;;;;29.84;27.98;100632.87;107923;1288;23075;-61
2023/05/01 10:44:18;;;;;;;6.40;2.90;;;;;;;29.86;28.52;100633.31;107991;1282;23842;-60
2023/05/01 10:47:24;;;;;;;4.20;2.80;;;;;;;30.10;29.38;100627.50;108051;1288;21990;-63
2023/05/01 10:50:15;;;;;;;6.40;3.20;;;;;;;30.35;28.45;100635.73;108048;1288;21992;-60
2023/05/01 10:53:11;;;;;;;9.30;3.70;;;;;;;30.45;28.60;100636.63;108071;1288;21997;-61
2023/05/01 10:56:04;;;;;;;5.00;3.20;;;;;;;30.42;28.66;100644.73;108058;1288;22028;-61
2023/05/01 10:59:01;;;;;;;5.30;2.90;;;;;;;30.14;28.20;100650.51;107807;1286;21984;-59
2023/05/01 11:01:53;;;;;;;4.00;2.50;;;;;;;29.77;28.42;100649.94;108055;1288;23172;-59
2023/05/01 11:04:47;;;;;;;5.50;2.90;;;;;;;29.57;28.59;100648.66;108016;1288;24358;-61
2023/05/01 11:07:37;;;;;;;5.20;2.60;;;;;;;29.33;28.24;100646.58;108030;1288;23060;-59
2023/05/01 11:10:28;;;;;;;4.40;2.60;;;;;;;29.12;28.40;100644.38;108007;1288;21989;-62
2023/05/01 11:13:58;;;;;;;6.70;3.10;;;;;;;29.02;27.85;100644.04;108010;1288;22258;-60
2023/05/01 11:16:49;;;;;;;7.30;2.90;;;;;;;29.27;28.61;100643.66;108062;1288;21991;-60
2023/05/01 11:19:46;;;;;;;6.30;2.80;;;;;;;29.56;28.28;100648.88;108064;1288;23202;-59
2023/05/01 11:22:41;;;;;;;5.90;2.40;;;;;;;29.79;27.97;100649.73;108084;1288;23883;-59
2023/05/01 11:25:33;;;;;;;4.90;2.40;;;;;;;29.81;27.47;100647.56;108098;1288;23640;-60